createdAt,value
2017-06-16T00:00:55.547Z,16.6
2017-06-16T00:10:55.560Z,16.53
2017-06-16T00:20:55.563Z,16.49
2017-06-16T00:30:55.570Z,16.45
2017-06-16T00:40:55.565Z,16.35
2017-06-16T00:50:55.588Z,16.41
2017-06-16T01:00:55.556Z,16.68
2017-06-16T01:10:55.581Z,16.88
2017-06-16T01:20:55.572Z,16.9
2017-06-16T01:30:55.557Z,16.93
2017-06-16T01:40:55.549Z,16.93
2017-06-16T01:50:55.563Z,16.9
2017-06-16T02:00:55.568Z,16.99
2017-06-16T02:10:55.578Z,16.98
2017-06-16T02:20:55.581Z,16.85
2017-06-16T02:30:55.577Z,16.59
2017-06-16T02:40:55.572Z,16.49
2017-06-16T02:50:55.556Z,16.4
2017-06-16T03:00:55.552Z,16.31
2017-06-16T03:10:55.547Z,16.27
2017-06-16T03:20:55.547Z,16.09
2017-06-16T03:30:55.546Z,16.27
2017-06-16T03:40:55.613Z,16.31
2017-06-16T03:50:55.575Z,16.58
2017-06-16T04:00:55.598Z,16.73
2017-06-16T04:10:55.550Z,16.88
2017-06-16T04:20:55.572Z,17.07
2017-06-16T04:30:55.565Z,17.06
2017-06-16T04:40:55.546Z,17.07
2017-06-16T04:50:55.559Z,17.47
2017-06-16T05:00:55.574Z,18.24
2017-06-16T05:10:55.568Z,18.27
2017-06-16T05:20:55.546Z,18.22
2017-06-16T05:30:55.579Z,18.25
2017-06-16T05:40:55.547Z,18.52
2017-06-16T05:50:55.594Z,19.1
2017-06-16T06:00:55.561Z,19.54
2017-06-16T06:10:55.569Z,19.54
2017-06-16T06:20:55.582Z,19.23
2017-06-16T06:30:55.580Z,19.14
2017-06-16T06:40:55.558Z,18.92
2017-06-16T06:50:55.566Z,19.06
2017-06-16T07:00:55.591Z,19.78
2017-06-16T07:10:55.584Z,21.14
2017-06-16T07:20:55.587Z,20.5
2017-06-16T07:30:55.568Z,21.56
2017-06-16T07:40:55.581Z,23.94
2017-06-16T07:50:55.585Z,25.05
2017-06-16T08:00:55.618Z,25.79
2017-06-16T08:10:55.617Z,22.46
2017-06-16T08:20:55.629Z,21.19
2017-06-16T08:30:55.653Z,23.11
2017-06-16T08:40:55.617Z,24.08
2017-06-16T08:50:55.615Z,24.35
2017-06-16T09:00:56.130Z,28.77
2017-06-16T09:10:55.596Z,25.35
2017-06-16T09:20:55.596Z,22.77
2017-06-16T09:30:55.613Z,21.85
2017-06-16T09:40:55.632Z,20.27
2017-06-16T09:50:55.600Z,20.72
2017-06-16T10:00:55.624Z,22.23
2017-06-16T10:10:55.632Z,21.26
2017-06-16T10:20:55.617Z,22.12
2017-06-16T10:30:55.649Z,22.1
2017-06-16T10:40:55.649Z,20.8
2017-06-16T10:50:55.621Z,20.39
2017-06-16T11:00:55.609Z,22.29
2017-06-16T11:10:55.638Z,20.56
2017-06-16T11:20:55.617Z,20.98
2017-06-16T11:30:55.609Z,21.23
2017-06-16T11:40:55.603Z,20.69
2017-06-16T11:50:55.617Z,20.12
2017-06-16T12:00:55.617Z,20.8
2017-06-16T12:10:55.673Z,20.41
2017-06-16T12:20:55.620Z,20
2017-06-16T12:30:55.627Z,19.95
2017-06-16T12:40:55.638Z,20.79
2017-06-16T12:50:55.667Z,22.09
2017-06-16T13:00:55.677Z,22.22
2017-06-16T13:10:55.634Z,22.59
2017-06-16T13:20:55.642Z,21.82
2017-06-16T13:30:55.658Z,20.98
2017-06-16T13:40:55.652Z,21.41
2017-06-16T13:50:55.656Z,21.74
2017-06-16T14:00:55.646Z,22.02
2017-06-16T14:10:55.627Z,21.71
2017-06-16T14:20:55.652Z,21.59
2017-06-16T14:30:55.630Z,21.81
2017-06-16T14:40:55.672Z,21.36
2017-06-16T14:50:55.694Z,21.04
2017-06-16T15:00:55.654Z,20.3
2017-06-16T15:10:55.640Z,19.91
2017-06-16T15:20:55.633Z,19.88
2017-06-16T15:30:55.665Z,20.03
2017-06-16T15:40:55.655Z,20.18
2017-06-16T15:50:55.671Z,19.78
2017-06-16T16:00:55.642Z,19.42
2017-06-16T16:10:55.641Z,19.75
2017-06-16T16:20:55.661Z,19.98
2017-06-16T16:30:55.671Z,19.79
2017-06-16T16:40:55.658Z,19.42
2017-06-16T16:50:55.666Z,19.6
2017-06-16T17:00:55.677Z,19.4
2017-06-16T17:10:55.648Z,19.24
2017-06-16T17:20:55.780Z,19.06
2017-06-16T17:30:55.709Z,18.86
2017-06-16T17:40:55.751Z,18.9
2017-06-16T18:00:55.763Z,18.67
2017-06-16T18:10:55.731Z,18.68
2017-06-16T18:20:55.706Z,18.68
2017-06-16T18:30:55.765Z,18.39
2017-06-16T18:40:55.703Z,18.03
2017-06-16T18:50:55.750Z,17.84
2017-06-16T19:00:55.729Z,17.85
2017-06-16T19:10:55.684Z,17.91
2017-06-16T19:20:55.769Z,17.84
2017-06-16T19:30:55.748Z,17.82
2017-06-16T19:40:55.671Z,17.79
2017-06-16T19:50:56.319Z,17.69
2017-06-16T20:00:55.704Z,17.48
2017-06-16T20:10:55.752Z,17.25
2017-06-16T20:20:55.744Z,16.95
2017-06-16T20:30:55.750Z,16.81
2017-06-16T20:40:55.825Z,16.2
2017-06-16T20:50:55.741Z,15.88
2017-06-16T21:00:55.763Z,15.57
2017-06-16T21:10:55.786Z,15.27
2017-06-16T21:20:55.722Z,15.03
2017-06-16T21:30:55.753Z,14.88
2017-06-16T21:40:55.726Z,14.68
2017-06-16T21:50:55.808Z,14.52
2017-06-16T22:00:55.753Z,14.16
2017-06-16T22:10:55.716Z,13.94
2017-06-16T22:20:55.779Z,13.7
2017-06-16T22:30:55.740Z,13.54
2017-06-16T22:40:55.796Z,13.41
2017-06-16T22:50:55.752Z,13.27
2017-06-16T23:00:55.712Z,13.3
2017-06-16T23:10:55.687Z,13.22
2017-06-16T23:20:55.756Z,13.12
2017-06-16T23:30:55.709Z,12.87
2017-06-16T23:40:55.785Z,12.75
2017-06-16T23:50:55.748Z,12.79
